createdAt,value
2019-05-05T00:01:30.029Z,99308.04
2019-05-05T00:03:54.885Z,99310.96
2019-05-05T00:06:15.833Z,99311.69
2019-05-05T00:08:37.396Z,99307.02
2019-05-05T00:10:59.279Z,99312.94
2019-05-05T00:13:20.648Z,99318.55
2019-05-05T00:15:42.555Z,99315.45
2019-05-05T00:18:05.410Z,99320.84
2019-05-05T00:20:27.260Z,99317.53
2019-05-05T00:22:49.003Z,99315.02
2019-05-05T00:25:11.182Z,99322.30
2019-05-05T00:27:34.581Z,99318.16
2019-05-05T00:29:55.397Z,99326.44
2019-05-05T00:32:17.118Z,99314.52
2019-05-05T00:34:39.375Z,99334.20
2019-05-05T00:37:01.461Z,99335.15
2019-05-05T00:39:22.715Z,99338.87
2019-05-05T00:41:44.901Z,99336.94
2019-05-05T00:44:06.299Z,99338.78
2019-05-05T00:46:28.089Z,99340.85
2019-05-05T00:48:49.340Z,99341.92
2019-05-05T00:51:10.922Z,99340.77
2019-05-05T00:53:34.308Z,99343.36
2019-05-05T00:55:55.361Z,99344.70
2019-05-05T00:58:17.383Z,99353.52
2019-05-05T01:00:39.311Z,99339.41
2019-05-05T01:03:01.036Z,99340.26
2019-05-05T01:05:25.209Z,99349.38
2019-05-05T01:07:46.660Z,99350.94
2019-05-05T01:10:08.300Z,99356.52
2019-05-05T01:12:29.616Z,99355.70
2019-05-05T01:14:51.529Z,99349.15
2019-05-05T01:17:14.750Z,99355.29
2019-05-05T01:19:37.145Z,99351.75
2019-05-05T01:21:58.821Z,99357.67
2019-05-05T01:24:20.926Z,99352.47
2019-05-05T01:26:44.565Z,99361.90
2019-05-05T01:29:06.489Z,99350.84
2019-05-05T01:31:27.827Z,99358.61
2019-05-05T01:33:49.746Z,99360.67
2019-05-05T01:36:11.321Z,99359.73
2019-05-05T01:38:34.223Z,99365.43
2019-05-05T01:40:56.252Z,99362.95
2019-05-05T01:43:18.530Z,99363.05
2019-05-05T01:45:40.634Z,99363.89
2019-05-05T01:48:04.772Z,99360.56
2019-05-05T01:50:25.978Z,99365.95
2019-05-05T01:52:47.470Z,99368.02
2019-05-05T01:55:09.287Z,99369.36
2019-05-05T01:57:31.258Z,99363.03
2019-05-05T01:59:55.237Z,99365.12
2019-05-05T02:02:16.913Z,99363.78
2019-05-05T02:04:38.449Z,99361.80
2019-05-05T02:07:01.057Z,99371.02
2019-05-05T02:09:24.933Z,99370.59
2019-05-05T02:11:46.598Z,99365.70
2019-05-05T02:14:08.549Z,99370.28
2019-05-05T02:16:30.310Z,99373.50
2019-05-05T02:18:51.986Z,99369.65
2019-05-05T02:21:14.246Z,99372.34
2019-05-05T02:23:36.036Z,99372.88
2019-05-05T02:25:57.903Z,99371.21
2019-05-05T02:28:20.260Z,99367.89
2019-05-05T02:30:42.296Z,99368.73
2019-05-05T02:33:06.318Z,99368.92
2019-05-05T02:35:28.861Z,99373.80
2019-05-05T02:37:50.589Z,99373.48
2019-05-05T02:40:12.044Z,99370.45
2019-05-05T02:42:35.429Z,99369.81
2019-05-05T02:44:56.135Z,99371.70
2019-05-05T02:47:17.530Z,99377.08
2019-05-05T02:49:39.248Z,99378.61
2019-05-05T02:52:00.713Z,99373.75
2019-05-05T02:54:24.723Z,99386.19
2019-05-05T02:56:46.026Z,99383.68
2019-05-05T02:59:08.043Z,99380.70
2019-05-05T03:01:30.036Z,99384.42
2019-05-05T03:03:51.672Z,99384.73
2019-05-05T03:06:14.465Z,99389.81
2019-05-05T03:08:36.612Z,99386.27
2019-05-05T03:10:58.170Z,99392.19
2019-05-05T03:13:20.127Z,99388.96
2019-05-05T03:15:41.467Z,99394.56
2019-05-05T03:18:04.135Z,99399.63
2019-05-05T03:20:25.868Z,99394.56
2019-05-05T03:22:47.604Z,99400.27
2019-05-05T03:25:09.251Z,99395.91
2019-05-05T03:27:30.981Z,99394.56
2019-05-05T03:29:53.659Z,99392.90
2019-05-05T03:32:16.344Z,99392.27
2019-05-05T03:34:38.381Z,99393.92
2019-05-05T03:36:59.852Z,99388.23
2019-05-05T03:39:23.575Z,99393.61
2019-05-05T03:41:45.464Z,99405.41
2019-05-05T03:44:06.843Z,99407.08
2019-05-05T03:46:28.727Z,99408.95
2019-05-05T03:48:50.752Z,99409.45
2019-05-05T03:51:20.492Z,99403.75
2019-05-05T03:53:35.277Z,99406.44
2019-05-05T03:55:56.887Z,99409.13
2019-05-05T03:58:19.270Z,99402.41
2019-05-05T04:00:40.624Z,99405.09
2019-05-05T04:03:04.278Z,99408.53
2019-05-05T04:05:26.340Z,99407.19
2019-05-05T04:07:47.703Z,99416.89
2019-05-05T04:10:09.416Z,99414.73
2019-05-05T04:12:31.311Z,99415.76
2019-05-05T04:14:54.567Z,99416.29
2019-05-05T04:17:16.253Z,99416.08
2019-05-05T04:19:38.162Z,99417.21
2019-05-05T04:21:59.360Z,99422.41
2019-05-05T04:24:21.539Z,99422.73
2019-05-05T04:26:44.043Z,99426.88
2019-05-05T04:29:06.019Z,99427.19
2019-05-05T04:31:27.355Z,99424.81
2019-05-05T04:33:49.170Z,99432.14
2019-05-05T04:36:10.465Z,99434.66
2019-05-05T04:38:32.343Z,99435.48
2019-05-05T04:40:54.441Z,99442.03
2019-05-05T04:43:16.226Z,99447.20
2019-05-05T04:45:38.372Z,99454.28
2019-05-05T04:48:00.528Z,99457.47
2019-05-05T04:50:23.882Z,99452.94
2019-05-05T04:52:45.677Z,99462.36
2019-05-05T04:55:07.182Z,99463.70
2019-05-05T04:57:29.333Z,99462.86
2019-05-05T04:59:50.597Z,99464.20
2019-05-05T05:02:14.412Z,99468.56
2019-05-05T05:04:36.335Z,99467.75
2019-05-05T05:06:58.123Z,99458.81
2019-05-05T05:09:20.344Z,99463.70
2019-05-05T05:11:44.182Z,99465.87
2019-05-05T05:14:04.576Z,99467.75
2019-05-05T05:16:26.778Z,99470.94
2019-05-05T05:18:48.703Z,99475.83
2019-05-05T05:21:10.219Z,99478.17
2019-05-05T05:23:34.096Z,99470.59
2019-05-05T05:25:55.875Z,99473.81
2019-05-05T05:28:16.729Z,99477.85
2019-05-05T05:30:39.055Z,99483.23
2019-05-05T05:33:01.207Z,99486.45
2019-05-05T05:35:24.383Z,99486.95
2019-05-05T05:37:46.736Z,99495.88
2019-05-05T05:40:08.320Z,99490.50
2019-05-05T05:42:30.100Z,99495.03
2019-05-05T05:44:53.497Z,99500.11
2019-05-05T05:47:15.139Z,99499.61
2019-05-05T05:49:36.714Z,99499.08
2019-05-05T05:52:12.086Z,99504.14
2019-05-05T05:54:23.528Z,99504.14
2019-05-05T05:56:45.991Z,99503.83
2019-05-05T05:59:07.662Z,99510.88
2019-05-05T06:01:29.644Z,99509.21
2019-05-05T06:03:51.284Z,99514.91
2019-05-05T06:06:13.829Z,99515.23
2019-05-05T06:08:35.790Z,99518.56
2019-05-05T06:10:57.920Z,99520.27
2019-05-05T06:13:19.492Z,99532.38
2019-05-05T06:15:40.422Z,99536.20
2019-05-05T06:18:04.631Z,99539.22
2019-05-05T06:20:27.278Z,99538.41
2019-05-05T06:22:49.058Z,99547.87
2019-05-05T06:25:10.715Z,99549.64
2019-05-05T06:27:34.223Z,99553.83
2019-05-05T06:29:56.085Z,99552.20
2019-05-05T06:32:17.649Z,99555.14
2019-05-05T06:34:39.244Z,99557.88
2019-05-05T06:37:01.704Z,99549.62
2019-05-05T06:39:24.175Z,99553.08
2019-05-05T06:41:45.903Z,99553.69
2019-05-05T06:44:08.062Z,99558.84
2019-05-05T06:46:29.494Z,99553.13
2019-05-05T06:48:53.738Z,99562.61
2019-05-05T06:51:14.645Z,99559.73
2019-05-05T06:53:36.544Z,99564.97
2019-05-05T06:55:57.847Z,99561.98
2019-05-05T06:58:19.669Z,99568.59
2019-05-05T07:00:41.442Z,99575.47
2019-05-05T07:03:07.611Z,99571.53
2019-05-05T07:05:26.273Z,99567.37
2019-05-05T07:07:48.012Z,99565.28
2019-05-05T07:10:10.551Z,99567.91
2019-05-05T07:12:32.133Z,99561.43
2019-05-05T07:14:54.467Z,99565.00
2019-05-05T07:17:16.028Z,99565.17
2019-05-05T07:19:37.090Z,99556.36
2019-05-05T07:21:58.876Z,99558.61
2019-05-05T07:24:20.651Z,99568.78
2019-05-05T07:26:44.534Z,99568.86
2019-05-05T07:29:06.656Z,99577.82
2019-05-05T07:31:28.448Z,99583.44
2019-05-05T07:33:50.215Z,99585.72
2019-05-05T07:36:14.426Z,99585.06
2019-05-05T07:38:34.816Z,99585.80
2019-05-05T07:40:56.672Z,99583.75
2019-05-05T07:43:18.611Z,99584.27
2019-05-05T07:45:40.268Z,99586.94
2019-05-05T07:48:01.895Z,99585.66
2019-05-05T07:50:29.542Z,99582.83
2019-05-05T07:52:47.289Z,99586.47
2019-05-05T07:55:09.331Z,99590.41
2019-05-05T07:57:31.346Z,99585.47
2019-05-05T07:59:54.092Z,99588.22
2019-05-05T08:02:15.626Z,99586.81
2019-05-05T08:04:37.287Z,99591.73
2019-05-05T08:06:58.966Z,99588.66
2019-05-05T08:09:22.655Z,99589.53
2019-05-05T08:11:43.824Z,99589.64
2019-05-05T08:14:05.911Z,99596.80
2019-05-05T08:16:27.224Z,99598.09
2019-05-05T08:18:48.986Z,99593.34
2019-05-05T08:21:10.679Z,99595.45
2019-05-05T08:23:35.251Z,99590.98
2019-05-05T08:25:56.172Z,99599.70
2019-05-05T08:28:17.630Z,99595.98
2019-05-05T08:30:39.193Z,99595.49
2019-05-05T08:33:01.244Z,99592.38
2019-05-05T08:35:23.770Z,99595.01
2019-05-05T08:37:45.267Z,99595.77
2019-05-05T08:40:06.801Z,99595.98
2019-05-05T08:42:28.524Z,99595.06
2019-05-05T08:44:50.449Z,99598.86
2019-05-05T08:47:13.893Z,99597.45
2019-05-05T08:49:36.585Z,99590.71
2019-05-05T08:51:58.126Z,99592.70
2019-05-05T08:54:19.847Z,99594.97
2019-05-05T08:56:41.602Z,99601.84
2019-05-05T08:59:03.773Z,99593.45
2019-05-05T09:01:25.653Z,99589.41
2019-05-05T09:03:47.196Z,99589.08
2019-05-05T09:06:09.909Z,99588.09
2019-05-05T09:08:31.392Z,99580.19
2019-05-05T09:10:55.021Z,99580.58
2019-05-05T09:13:15.942Z,99583.20
2019-05-05T09:15:37.896Z,99587.17
2019-05-05T09:17:59.926Z,99588.23
2019-05-05T09:20:24.047Z,99582.98
2019-05-05T09:22:44.691Z,99581.53
2019-05-05T09:25:06.823Z,99588.19
2019-05-05T09:27:28.957Z,99599.02
2019-05-05T09:29:51.585Z,99606.31
2019-05-05T09:32:14.048Z,99603.83
2019-05-05T09:34:36.149Z,99610.88
2019-05-05T09:36:58.028Z,99616.06
2019-05-05T09:39:20.414Z,99604.34
2019-05-05T09:41:44.466Z,99605.61
2019-05-05T09:44:05.831Z,99610.42
2019-05-05T09:46:27.017Z,99609.49
2019-05-05T09:48:48.999Z,99606.62
2019-05-05T09:51:10.236Z,99611.89
2019-05-05T09:53:34.252Z,99605.78
2019-05-05T09:55:54.979Z,99603.50
2019-05-05T09:58:17.758Z,99603.28
2019-05-05T10:00:40.614Z,99607.15
2019-05-05T10:03:03.806Z,99603.83
2019-05-05T10:05:25.160Z,99596.97
2019-05-05T10:07:47.242Z,99596.78
2019-05-05T10:10:08.713Z,99599.16
2019-05-05T10:12:30.359Z,99604.34
2019-05-05T10:14:54.054Z,99602.78
2019-05-05T10:17:14.766Z,99606.72
2019-05-05T10:19:44.018Z,99610.98
2019-05-05T10:22:05.663Z,99605.37
2019-05-05T10:24:30.646Z,99609.42
2019-05-05T10:26:49.790Z,99609.84
2019-05-05T10:29:11.189Z,99604.76
2019-05-05T10:31:34.593Z,99607.05
2019-05-05T10:33:56.998Z,99599.45
2019-05-05T10:36:18.878Z,99604.57
2019-05-05T10:38:40.611Z,99608.62
2019-05-05T10:41:01.630Z,99609.12
2019-05-05T10:43:23.892Z,99614.30
2019-05-05T10:45:45.739Z,99611.09
2019-05-05T10:48:07.437Z,99620.64
2019-05-05T10:50:29.563Z,99620.23
2019-05-05T10:52:51.065Z,99623.77
2019-05-05T10:55:14.548Z,99629.80
2019-05-05T10:57:35.806Z,99634.03
2019-05-05T11:00:09.385Z,99633.41
2019-05-05T11:02:24.200Z,99626.04
2019-05-05T11:04:45.618Z,99622.21
2019-05-05T11:07:07.496Z,99616.19
2019-05-05T11:09:29.773Z,99623.03
2019-05-05T11:11:51.465Z,99629.19
2019-05-05T11:14:14.239Z,99620.36
2019-05-05T11:16:39.046Z,99624.73
2019-05-05T11:18:59.965Z,99634.81
2019-05-05T11:21:23.689Z,99635.59
2019-05-05T11:23:45.639Z,99637.98
2019-05-05T11:26:08.305Z,99634.23
2019-05-05T11:28:29.881Z,99634.68
2019-05-05T11:30:53.725Z,99633.86
2019-05-05T11:33:15.488Z,99633.14
2019-05-05T11:35:36.815Z,99636.75
2019-05-05T11:37:58.693Z,99629.72
2019-05-05T11:40:20.401Z,99633.86
2019-05-05T11:42:42.483Z,99625.95
2019-05-05T11:45:04.281Z,99628.96
2019-05-05T11:47:26.270Z,99635.31
2019-05-05T11:49:48.207Z,99632.52
2019-05-05T11:52:10.520Z,99633.14
2019-05-05T11:54:32.488Z,99622.62
2019-05-05T11:57:33.612Z,99608.61
2019-05-05T11:59:55.994Z,99614.33
2019-05-05T12:02:17.688Z,99617.84
2019-05-05T12:04:39.779Z,99624.50
2019-05-05T12:07:04.097Z,99624.73
2019-05-05T12:09:26.031Z,99626.98
2019-05-05T12:11:47.208Z,99623.56
2019-05-05T12:14:09.309Z,99623.34
2019-05-05T12:16:30.786Z,99625.63
2019-05-05T12:18:53.932Z,99629.28
2019-05-05T12:21:15.365Z,99628.45
2019-05-05T12:23:36.961Z,99629.28
2019-05-05T12:25:59.162Z,99633.33
2019-05-05T12:28:21.627Z,99624.38
2019-05-05T12:30:44.427Z,99631.25
2019-05-05T12:33:06.169Z,99621.57
2019-05-05T12:35:27.818Z,99628.02
2019-05-05T12:37:49.739Z,99623.86
2019-05-05T12:40:11.899Z,99621.03
2019-05-05T12:42:33.525Z,99617.28
2019-05-05T12:44:55.069Z,99618.09
2019-05-05T12:47:19.831Z,99620.59
2019-05-05T12:49:41.546Z,99622.21
2019-05-05T12:52:04.603Z,99618.78
2019-05-05T12:54:26.394Z,99630.53
2019-05-05T12:56:47.624Z,99616.61
2019-05-05T12:59:09.341Z,99623.56
2019-05-05T13:01:33.589Z,99608.61
2019-05-05T13:03:54.976Z,99614.33
2019-05-05T13:06:17.100Z,99625.53
2019-05-05T13:08:38.744Z,99627.62
2019-05-05T13:11:00.562Z,99627.92
2019-05-05T13:13:22.851Z,99634.59
2019-05-05T13:15:44.768Z,99633.97
2019-05-05T13:18:06.191Z,99629.20
2019-05-05T13:20:28.306Z,99627.23
2019-05-05T13:22:49.724Z,99634.43
2019-05-05T13:25:13.857Z,99637.45
2019-05-05T13:27:35.516Z,99649.30
2019-05-05T13:29:57.792Z,99653.75
2019-05-05T13:32:19.317Z,99655.83
2019-05-05T13:34:41.198Z,99655.43
2019-05-05T13:37:03.611Z,99661.37
2019-05-05T13:39:26.098Z,99655.52
2019-05-05T13:41:47.616Z,99654.62
2019-05-05T13:44:09.940Z,99652.42
2019-05-05T13:46:33.807Z,99650.97
2019-05-05T13:48:54.811Z,99655.25
2019-05-05T13:51:16.755Z,99648.09
2019-05-05T13:53:38.680Z,99652.33
2019-05-05T13:56:11.020Z,99642.25
2019-05-05T13:58:24.925Z,99639.67
2019-05-05T14:00:46.904Z,99639.36
2019-05-05T14:03:09.096Z,99640.39
2019-05-05T14:05:31.651Z,99641.24
2019-05-05T14:07:53.741Z,99635.40
2019-05-05T14:10:15.200Z,99633.77
2019-05-05T14:12:37.158Z,99637.91
2019-05-05T14:14:58.800Z,99637.78
2019-05-05T14:17:20.477Z,99638.95
2019-05-05T14:19:44.444Z,99632.51
2019-05-05T14:22:05.465Z,99628.86
2019-05-05T14:24:27.376Z,99626.56
2019-05-05T14:26:48.311Z,99631.03
2019-05-05T14:29:10.856Z,99626.34
2019-05-05T14:31:33.794Z,99627.28
2019-05-05T14:33:55.375Z,99624.03
2019-05-05T14:36:17.251Z,99621.64
2019-05-05T14:38:38.520Z,99614.58
2019-05-05T14:40:59.708Z,99615.61
2019-05-05T14:43:21.296Z,99612.59
2019-05-05T14:45:44.384Z,99606.38
2019-05-05T14:48:06.248Z,99608.35
2019-05-05T14:50:27.363Z,99613.45
2019-05-05T14:52:49.212Z,99609.81
2019-05-05T14:55:10.881Z,99613.02
2019-05-05T14:57:33.649Z,99612.11
2019-05-05T14:59:56.028Z,99608.87
2019-05-05T15:02:17.791Z,99613.14
2019-05-05T15:04:39.685Z,99613.87
2019-05-05T15:07:03.620Z,99607.12
2019-05-05T15:09:25.376Z,99609.73
2019-05-05T15:11:46.208Z,99610.45
2019-05-05T15:14:07.804Z,99609.64
2019-05-05T15:16:29.175Z,99604.33
2019-05-05T15:18:50.857Z,99606.72
2019-05-05T15:21:12.620Z,99603.92
2019-05-05T15:23:34.468Z,99603.30
2019-05-05T15:25:56.165Z,99612.57
2019-05-05T15:28:18.408Z,99615.14
2019-05-05T15:30:40.340Z,99601.77
2019-05-05T15:33:04.506Z,99611.95
2019-05-05T15:35:26.045Z,99611.63
2019-05-05T15:37:47.702Z,99602.27
2019-05-05T15:40:09.328Z,99603.63
2019-05-05T15:42:30.906Z,99605.38
2019-05-05T15:44:54.351Z,99601.84
2019-05-05T15:47:16.794Z,99603.41
2019-05-05T15:49:38.814Z,99599.13
2019-05-05T15:52:00.755Z,99599.58
2019-05-05T15:54:23.597Z,99600.83
2019-05-05T15:56:45.285Z,99603.63
2019-05-05T15:59:12.031Z,99608.93
2019-05-05T16:01:36.659Z,99606.85
2019-05-05T16:04:03.610Z,99609.42
2019-05-05T16:06:24.205Z,99620.64
2019-05-05T16:08:46.233Z,99615.36
2019-05-05T16:11:09.699Z,99620.03
2019-05-05T16:14:01.194Z,99615.45
2019-05-05T16:16:02.565Z,99613.37
2019-05-05T16:19:05.655Z,99621.98
2019-05-05T16:21:03.649Z,99625.53
2019-05-05T16:23:29.494Z,99625.84
2019-05-05T16:25:55.875Z,99630.09
2019-05-05T16:28:16.469Z,99619.81
2019-05-05T16:30:38.089Z,99623.87
2019-05-05T16:32:59.712Z,99616.80
2019-05-05T16:35:23.734Z,99610.58
2019-05-05T16:37:47.156Z,99608.39
2019-05-05T16:40:17.884Z,99607.03
2019-05-05T16:43:33.762Z,99613.88
2019-05-05T16:45:09.583Z,99614.42
2019-05-05T16:47:33.613Z,99612.25
2019-05-05T16:49:56.757Z,99613.70
2019-05-05T16:52:18.995Z,99616.09
2019-05-05T16:54:40.698Z,99617.66
2019-05-05T16:57:03.984Z,99614.86
2019-05-05T16:59:28.461Z,99614.73
2019-05-05T17:01:50.400Z,99618.48
2019-05-05T17:04:19.435Z,99616.00
2019-05-05T17:06:45.798Z,99616.00
2019-05-05T17:09:07.640Z,99618.38
2019-05-05T17:11:38.807Z,99625.82
2019-05-05T17:14:06.454Z,99619.83
2019-05-05T17:16:28.001Z,99624.06
2019-05-05T17:18:51.123Z,99622.72
2019-05-05T17:21:16.550Z,99630.72
2019-05-05T17:23:43.349Z,99627.20
2019-05-05T17:26:06.116Z,99630.81
2019-05-05T17:28:29.137Z,99632.08
2019-05-05T17:30:56.334Z,99628.46
2019-05-05T17:33:25.522Z,99635.94
2019-05-05T17:35:54.067Z,99639.58
2019-05-05T17:38:16.046Z,99637.59
2019-05-05T17:40:43.707Z,99637.38
2019-05-05T17:43:22.512Z,99635.62
2019-05-05T17:45:37.087Z,99637.59
2019-05-05T17:47:59.104Z,99636.25
2019-05-05T17:50:21.442Z,99633.55
2019-05-05T17:52:44.858Z,99635.71
2019-05-05T17:55:10.014Z,99638.09
2019-05-05T17:57:37.928Z,99640.17
2019-05-05T18:00:12.115Z,99637.47
2019-05-05T18:02:40.162Z,99636.44
2019-05-05T18:05:07.107Z,99636.97
2019-05-05T18:07:40.503Z,99642.56
2019-05-05T18:10:05.819Z,99640.08
2019-05-05T18:12:33.763Z,99638.10
2019-05-05T18:14:59.752Z,99637.78
2019-05-05T18:17:24.321Z,99641.52
2019-05-05T18:19:53.513Z,99648.00
2019-05-05T18:22:14.636Z,99646.33
2019-05-05T18:24:55.253Z,99651.11
2019-05-05T18:27:14.026Z,99651.83
2019-05-05T18:29:39.839Z,99647.68
2019-05-05T18:31:58.290Z,99652.77
2019-05-05T18:34:28.716Z,99651.80
2019-05-05T18:37:21.715Z,99656.06
2019-05-05T18:39:16.407Z,99654.61
2019-05-05T18:41:40.842Z,99656.16
2019-05-05T18:44:06.162Z,99654.20
2019-05-05T18:46:30.697Z,99660.41
2019-05-05T18:48:55.483Z,99667.58
2019-05-05T18:51:17.387Z,99668.33
2019-05-05T18:53:39.041Z,99667.80
2019-05-05T18:56:00.772Z,99665.91
2019-05-05T18:58:28.176Z,99671.03
2019-05-05T19:00:45.465Z,99672.66
2019-05-05T19:03:17.786Z,99670.18
2019-05-05T19:05:30.929Z,99677.25
2019-05-05T19:07:55.802Z,99680.36
2019-05-05T19:10:15.643Z,99677.57
2019-05-05T19:12:38.197Z,99684.73
2019-05-05T19:14:59.912Z,99685.39
2019-05-05T19:17:23.571Z,99689.01
2019-05-05T19:19:47.071Z,99697.33
2019-05-05T19:22:09.286Z,99696.39
2019-05-05T19:24:35.135Z,99692.97
2019-05-05T19:26:56.093Z,99695.86
2019-05-05T19:29:17.604Z,99698.47
2019-05-05T19:31:41.070Z,99693.38
2019-05-05T19:34:04.000Z,99700.86
2019-05-05T19:36:27.447Z,99698.34
2019-05-05T19:38:49.120Z,99702.30
2019-05-05T19:41:10.988Z,99700.95
2019-05-05T19:43:33.991Z,99703.03
2019-05-05T19:45:55.759Z,99708.43
2019-05-05T19:48:17.973Z,99704.88
2019-05-05T19:50:39.722Z,99710.28
2019-05-05T19:53:01.535Z,99716.00
2019-05-05T19:55:23.206Z,99715.91
2019-05-05T19:57:44.701Z,99716.85
2019-05-05T20:00:06.892Z,99713.83
2019-05-05T20:02:30.128Z,99723.92
2019-05-05T20:04:55.872Z,99725.27
2019-05-05T20:07:17.676Z,99718.30
2019-05-05T20:09:39.518Z,99713.93
2019-05-05T20:12:00.836Z,99715.06
2019-05-05T20:14:22.220Z,99715.91
2019-05-05T20:16:44.206Z,99719.64
2019-05-05T20:19:15.942Z,99714.55
2019-05-05T20:21:57.972Z,99714.65
2019-05-05T20:24:23.908Z,99715.81
2019-05-05T20:26:50.662Z,99710.91
2019-05-05T20:29:16.560Z,99718.20
2019-05-05T20:31:35.416Z,99719.02
2019-05-05T20:33:56.678Z,99722.25
2019-05-05T20:36:18.500Z,99717.89
2019-05-05T20:38:39.925Z,99727.25
2019-05-05T20:41:04.233Z,99719.14
2019-05-05T20:43:29.001Z,99725.46
2019-05-05T20:45:48.568Z,99728.16
2019-05-05T20:48:09.611Z,99722.88
2019-05-05T20:50:31.240Z,99724.55
2019-05-05T20:52:53.553Z,99728.50
2019-05-05T20:55:16.003Z,99722.78
2019-05-05T20:57:37.638Z,99727.47
2019-05-05T21:00:03.718Z,99734.82
2019-05-05T21:02:25.809Z,99736.30
2019-05-05T21:04:47.231Z,99737.74
2019-05-05T21:07:09.756Z,99736.27
2019-05-05T21:09:30.917Z,99738.56
2019-05-05T21:11:54.838Z,99736.48
2019-05-05T21:14:20.452Z,99730.87
2019-05-05T21:16:39.523Z,99731.18
2019-05-05T21:19:00.884Z,99728.79
2019-05-05T21:21:24.815Z,99729.92
2019-05-05T21:23:46.135Z,99735.86
2019-05-05T21:26:07.723Z,99735.86
2019-05-05T21:28:28.938Z,99732.94
2019-05-05T21:30:50.681Z,99736.68
2019-05-05T21:33:12.841Z,99735.64
2019-05-05T21:35:35.113Z,99735.95
2019-05-05T21:37:57.049Z,99739.50
2019-05-05T21:40:18.873Z,99744.06
2019-05-05T21:42:40.598Z,99741.36
2019-05-05T21:45:04.509Z,99740.01
2019-05-05T21:47:25.603Z,99736.17
2019-05-05T21:49:47.649Z,99743.25
2019-05-05T21:52:09.548Z,99742.39
2019-05-05T21:54:31.191Z,99745.82
2019-05-05T21:56:53.448Z,99748.24
2019-05-05T21:59:15.322Z,99746.58
2019-05-05T22:01:39.511Z,99746.27
2019-05-05T22:04:00.068Z,99746.77
2019-05-05T22:06:21.476Z,99746.17
2019-05-05T22:08:43.515Z,99745.12
2019-05-05T22:11:05.529Z,99743.15
2019-05-05T22:13:27.431Z,99749.91
2019-05-05T22:15:48.978Z,99747.70
2019-05-05T22:18:10.585Z,99740.63
2019-05-05T22:20:33.944Z,99741.70
2019-05-05T22:22:55.315Z,99749.17
2019-05-05T22:25:16.848Z,99741.48
2019-05-05T22:27:38.711Z,99741.37
2019-05-05T22:30:09.641Z,99742.41
2019-05-05T22:32:24.947Z,99746.16
2019-05-05T22:34:46.928Z,99743.36
2019-05-05T22:37:09.696Z,99743.04
2019-05-05T22:39:33.668Z,99736.19
2019-05-05T22:41:54.580Z,99740.96
2019-05-05T22:44:16.396Z,99741.36
2019-05-05T22:46:38.335Z,99743.25
2019-05-05T22:49:00.420Z,99740.86
2019-05-05T22:51:22.513Z,99750.41
2019-05-05T22:53:44.264Z,99752.18
2019-05-05T22:56:06.024Z,99751.78
2019-05-05T22:58:27.651Z,99745.66
2019-05-05T23:00:49.548Z,99749.58
2019-05-05T23:03:10.840Z,99751.88
2019-05-05T23:05:34.554Z,99750.31
2019-05-05T23:07:56.230Z,99744.69
2019-05-05T23:10:17.754Z,99746.57
2019-05-05T23:12:39.692Z,99742.30
2019-05-05T23:15:01.387Z,99745.00
2019-05-05T23:17:26.254Z,99745.85
2019-05-05T23:19:46.146Z,99745.00
2019-05-05T23:22:08.304Z,99742.84
2019-05-05T23:24:29.961Z,99746.57
2019-05-05T23:26:51.375Z,99743.88
2019-05-05T23:29:13.123Z,99739.00
2019-05-05T23:31:34.844Z,99739.00
2019-05-05T23:33:56.329Z,99738.37
2019-05-05T23:36:18.720Z,99740.98
2019-05-05T23:38:40.864Z,99744.50
2019-05-05T23:41:03.872Z,99743.36
2019-05-05T23:43:25.572Z,99741.70
2019-05-05T23:45:47.552Z,99742.20
2019-05-05T23:48:09.200Z,99742.10
2019-05-05T23:50:33.704Z,99740.44
2019-05-05T23:52:57.826Z,99741.16
2019-05-05T23:55:19.892Z,99745.42
2019-05-05T23:57:41.033Z,99744.30
